Terminal Aerodrome Forecast
Issued by NWS

Home | Current Version | Previous Version | Text Only | Print | Product List | Glossary On
Versions: 1 2 3 4 5 6 7 8 9 10 11 12 13 14 15 16 17 18 19 20 21 22 23 24 25 26
000
FTUS41 KBUF 070304 AAA
TAFJHW
TAF AMD
KJHW 070304Z 0703/0724 18004KT 6SM HZ SCT030 BKN045
     FM071000 19006KT P6SM SCT130
     FM071300 20010KT P6SM SCT250
     FM071800 23012G19KT P6SM VCSH BKN040
     FM072000 23011KT 5SM SHRA VCTS BKN025CB
      AMD LTD TO CLD VIS AND WIND=

USA.gov is the U.S. government's official web portal to all federal, state and local government web resources and services.